Suttons Bay, MI

2:43 AM EDT on May 26, 2015 (GMT -0400)
South Shore Drive | | Change Station
CLOSE
Current Station
Personal Weather Station
Location: Suttons Bay, MI
Elevation: 597 ft
Nearby Weather Stations

Elev 597 ft 44.97 °N, 85.64 °W | Updated 5 seconds ago

Overcast
Overcast
62.4 °F
Feels Like 62.4 °F
N
0.0
Wind Variable Wind from ESE
Gusts 0.0 mph

Today
High -- | Low -- °F
--% Chance of Precip.
Yesterday
High -- | Low -- °F
Precip. -- in
6:03 AM 9:16 PM
First Quarter, 55% visible
Pressure 29.87 in
Visibility 10.0 miles
Clouds Mostly Cloudy 10000 ft
Dew Point 60 °F
Humidity 92%
Rainfall 0.00 in
Snow Depth Not available.
UV 0 out of 12
Pollen 1.00 out of 12
Air Quality Not available.
Flu Activity Sporadic
METAR KTVC 260553Z AUTO VRB05KT 10SM BKN100 21/16 A2988 RMK AO2 SLP115 T02060156 10233 20200 50015

More Conditions Fewer Conditions

Pressure 29.87 in
Visibility 10.0 miles
Clouds Mostly Cloudy 10000 ft
Dew Point 60 °F
Humidity 92%
Rainfall 0.00 in
Snow Depth Not available.
UV 0 out of 12
Pollen 1.00 out of 12
Air Quality Not available.
Flu Activity Sporadic
METAR KTVC 260553Z AUTO VRB05KT 10SM BKN100 21/16 A2988 RMK AO2 SLP115 T02060156 10233 20200 50015

More Conditions Fewer Conditions

10-Day Weather Forecast

Almanac

Astronomy

May. 26, 2015 Rise Set
Actual Time
Civil Twilight
Nautical Twilight
Astronomical Twilight
Moon
Length of Visible Light
Length of Day
Tomorrow will be .
, % of the Moon is Illuminated

Today's Extremes

State Highs State Lows

Community

WunderPhotos

Upload Photos

1,824,294 photos uploaded!

WunderBlogs® & News

Nearby

Air Quality

  Air Quality AQ Index Pollutant
Not available.

Snow Depth

Station Depth Elevation

Earthquake Activity

City Distance Mag. Time & Date
Minimum magnitude displayed is 2.5.

Coastal Water Temperatures

Place Temperature

Stations

Nearby Weather Stations

Station Location Temp. Windchill Dew Point Humidity Wind Precip. Elev Updated Type